createdAt,value
2022-11-04T00:02:34.293Z,1.70
2022-11-04T00:07:54.721Z,1.20
2022-11-04T00:12:59.020Z,1.20
2022-11-04T00:18:01.974Z,1.20
2022-11-04T00:23:22.544Z,0.90
2022-11-04T00:28:45.203Z,0.77
2022-11-04T00:33:48.756Z,1.05
2022-11-04T00:38:51.870Z,1.00
2022-11-04T00:43:57.414Z,1.00
2022-11-04T00:49:00.675Z,0.70
2022-11-04T00:54:03.642Z,0.70
2022-11-04T00:59:10.409Z,0.52
2022-11-04T01:04:16.573Z,0.63
2022-11-04T01:09:19.525Z,0.73
2022-11-04T01:14:24.249Z,0.70
2022-11-04T01:19:27.196Z,0.70
2022-11-04T01:24:30.236Z,0.50
2022-11-04T01:29:34.589Z,0.63
2022-11-04T01:34:42.367Z,0.43
2022-11-04T01:39:46.640Z,0.47
2022-11-04T01:44:59.401Z,0.43
2022-11-04T01:50:05.932Z,0.77
2022-11-04T01:55:13.613Z,0.30
2022-11-04T02:00:18.905Z,0.55
2022-11-04T02:05:22.452Z,0.40
2022-11-04T02:10:28.796Z,0.40
2022-11-04T02:15:46.334Z,0.55
2022-11-04T02:21:10.405Z,0.47
2022-11-04T02:26:50.793Z,0.32
2022-11-04T02:32:04.710Z,0.50
2022-11-04T02:37:16.554Z,0.60
2022-11-04T02:42:27.260Z,0.30
2022-11-04T02:47:33.423Z,0.40
2022-11-04T02:52:47.227Z,0.30
2022-11-04T02:57:57.930Z,0.30
2022-11-04T03:03:07.009Z,0.30
2022-11-04T03:08:14.793Z,0.30
2022-11-04T03:13:21.444Z,0.30
2022-11-04T03:18:33.846Z,0.40
2022-11-04T03:23:37.401Z,0.35
2022-11-04T03:28:45.622Z,0.38
2022-11-04T03:33:51.896Z,0.35
2022-11-04T03:38:55.145Z,0.20
2022-11-04T03:43:58.354Z,0.40
2022-11-04T03:49:03.991Z,0.30
2022-11-04T03:54:07.965Z,0.30
2022-11-04T03:59:35.181Z,0.30
2022-11-04T04:04:45.572Z,0.30
2022-11-04T04:09:56.178Z,0.20
2022-11-04T04:15:06.599Z,0.20
2022-11-04T04:20:15.737Z,0.22
2022-11-04T04:25:37.646Z,0.20
2022-11-04T04:30:42.985Z,0.40
2022-11-04T04:35:52.594Z,0.30
2022-11-04T04:41:18.356Z,0.43
2022-11-04T04:46:21.395Z,0.38
2022-11-04T04:51:26.437Z,0.30
2022-11-04T04:56:29.437Z,0.20
2022-11-04T05:01:32.766Z,0.20
2022-11-04T05:06:37.284Z,0.13
2022-11-04T05:11:40.265Z,0.20
2022-11-04T05:16:43.196Z,0.30
2022-11-04T05:21:48.644Z,0.30
2022-11-04T05:26:51.598Z,0.20
2022-11-04T05:31:54.713Z,0.17
2022-11-04T05:37:00.447Z,0.20
2022-11-04T05:42:03.385Z,0.38
2022-11-04T05:47:06.386Z,0.30
2022-11-04T05:52:10.722Z,0.20
2022-11-04T05:57:13.654Z,0.20
2022-11-04T06:02:16.871Z,0.40
2022-11-04T06:07:21.350Z,0.40
2022-11-04T06:12:24.281Z,0.35
2022-11-04T06:17:27.237Z,0.30
2022-11-04T06:22:31.640Z,0.30
2022-11-04T06:27:34.591Z,0.20
2022-11-04T06:32:37.541Z,0.30
2022-11-04T06:37:41.849Z,0.20
2022-11-04T06:42:45.041Z,0.40
2022-11-04T06:47:48.010Z,1.58
2022-11-04T06:52:52.354Z,1.40
2022-11-04T06:57:55.290Z,1.50
2022-11-04T07:02:58.600Z,1.27
2022-11-04T07:08:02.951Z,1.00
2022-11-04T07:13:05.897Z,1.00
2022-11-04T07:18:09.130Z,4.28
2022-11-04T07:23:13.676Z,1.90
2022-11-04T07:28:17.285Z,1.77
2022-11-04T07:33:20.207Z,2.00
2022-11-04T07:38:24.707Z,6.72
2022-11-04T07:43:27.871Z,3.55
2022-11-04T07:48:30.939Z,2.80
2022-11-04T07:53:35.748Z,3.08
2022-11-04T07:58:38.926Z,2.30
2022-11-04T08:03:41.914Z,2.55
2022-11-04T08:08:47.998Z,7.82
2022-11-04T08:13:50.986Z,4.85
2022-11-04T08:18:54.231Z,6.03
2022-11-04T08:23:58.554Z,5.88
2022-11-04T08:29:02.518Z,5.80
2022-11-04T08:34:08.403Z,5.75
2022-11-04T08:39:13.831Z,5.90
2022-11-04T08:44:17.553Z,5.60
2022-11-04T08:49:21.496Z,5.68
2022-11-04T08:54:26.293Z,5.45
2022-11-04T08:59:29.346Z,6.20
2022-11-04T09:04:32.342Z,4.93
2022-11-04T09:09:36.911Z,5.47
2022-11-04T09:14:39.836Z,4.25
2022-11-04T09:19:42.797Z,4.65
2022-11-04T09:24:47.109Z,4.28
2022-11-04T09:29:50.570Z,4.38
2022-11-04T09:34:53.508Z,4.90
2022-11-04T09:39:57.826Z,4.10
2022-11-04T09:45:21.291Z,4.00
2022-11-04T09:50:27.757Z,4.05
2022-11-04T09:55:36.125Z,3.90
2022-11-04T10:00:40.622Z,3.58
2022-11-04T10:05:58.449Z,3.95
2022-11-04T10:11:07.164Z,3.28
2022-11-04T10:16:31.995Z,3.47
2022-11-04T10:21:45.862Z,3.03
2022-11-04T10:27:00.484Z,3.75
2022-11-04T10:32:11.093Z,3.40
2022-11-04T10:37:14.494Z,3.30
2022-11-04T10:42:22.159Z,3.00
2022-11-04T10:47:36.655Z,3.83
2022-11-04T10:52:40.015Z,2.80
2022-11-04T10:57:44.876Z,3.03
2022-11-04T11:02:49.362Z,2.90
2022-11-04T11:07:55.377Z,3.13
2022-11-04T11:13:02.201Z,3.13
2022-11-04T11:18:15.608Z,2.85
2022-11-04T11:23:38.260Z,2.80
2022-11-04T11:28:49.857Z,3.10
2022-11-04T11:33:58.477Z,2.72
2022-11-04T11:39:05.787Z,2.80
2022-11-04T11:44:22.475Z,2.60
2022-11-04T11:49:29.062Z,2.10
2022-11-04T11:54:39.103Z,2.45
2022-11-04T12:10:51.093Z,2.22
2022-11-04T12:16:13.585Z,2.83
2022-11-04T12:21:20.857Z,2.30
2022-11-04T12:26:35.396Z,2.17
2022-11-04T12:31:49.521Z,2.05
2022-11-04T12:37:09.025Z,1.85
2022-11-04T12:42:26.698Z,2.00
2022-11-04T12:47:38.687Z,1.92
2022-11-04T12:53:16.965Z,1.80
2022-11-04T12:58:35.101Z,1.92
2022-11-04T13:03:49.532Z,2.35
2022-11-04T13:08:56.221Z,1.98
2022-11-04T13:14:05.091Z,1.83
2022-11-04T13:19:21.632Z,1.88
2022-11-04T13:24:30.406Z,2.00
2022-11-04T13:29:36.979Z,2.08
2022-11-04T13:34:51.603Z,1.60
2022-11-04T13:39:58.817Z,2.30
2022-11-04T13:45:11.782Z,1.80
2022-11-04T13:50:33.964Z,1.60
2022-11-04T13:55:48.650Z,1.67
2022-11-04T14:01:13.918Z,1.70
2022-11-04T14:06:19.002Z,1.90
2022-11-04T14:11:22.030Z,1.50
2022-11-04T14:16:45.333Z,1.52
2022-11-04T14:22:08.134Z,1.90
2022-11-04T14:27:26.175Z,1.50
2022-11-04T14:32:35.741Z,1.60
2022-11-04T14:37:40.133Z,1.60
2022-11-04T14:42:47.068Z,1.73
2022-11-04T14:47:53.171Z,1.60
2022-11-04T14:53:00.112Z,1.83
2022-11-04T14:58:23.657Z,2.05
2022-11-04T15:04:09.674Z,1.70
2022-11-04T15:08:53.169Z,1.40
2022-11-04T15:14:00.060Z,1.60
2022-11-04T15:19:03.051Z,1.40
2022-11-04T15:24:12.241Z,1.67
2022-11-04T15:29:17.751Z,1.45
2022-11-04T15:34:21.246Z,1.30
2022-11-04T15:39:29.904Z,20.10
2022-11-04T15:44:35.729Z,78.80
2022-11-04T15:49:38.717Z,33.50
2022-11-04T15:54:46.833Z,20.65
2022-11-04T15:59:53.881Z,13.20
2022-11-04T16:05:09.137Z,12.77
2022-11-04T16:10:30.218Z,11.07
2022-11-04T16:15:35.651Z,9.68
2022-11-04T16:20:38.701Z,9.23
2022-11-04T16:25:43.059Z,9.07
2022-11-04T16:30:58.014Z,8.00
2022-11-04T16:36:01.020Z,7.90
2022-11-04T16:41:05.369Z,8.00
2022-11-04T16:46:08.927Z,6.93
2022-11-04T16:51:16.708Z,6.97
2022-11-04T16:56:24.502Z,6.60
2022-11-04T17:01:28.275Z,5.78
2022-11-04T17:06:31.334Z,5.40
2022-11-04T17:11:35.648Z,5.28
2022-11-04T17:16:38.597Z,4.82
2022-11-04T17:21:41.590Z,5.00
2022-11-04T17:26:46.066Z,4.55
2022-11-04T17:31:49.040Z,4.05
2022-11-04T17:36:52.290Z,4.28
2022-11-04T17:42:14.013Z,3.90
2022-11-04T17:47:17.022Z,4.15
2022-11-04T17:52:20.028Z,7.60
2022-11-04T17:57:24.365Z,8.75
2022-11-04T18:02:27.474Z,11.77
2022-11-04T18:07:30.790Z,13.23
2022-11-04T18:12:38.091Z,12.63
2022-11-04T18:17:42.233Z,12.95
2022-11-04T18:22:45.657Z,12.50
2022-11-04T18:27:49.963Z,11.77
2022-11-04T18:32:53.102Z,10.73
2022-11-04T18:37:56.031Z,11.30
2022-11-04T18:43:07.572Z,10.38
2022-11-04T18:48:12.008Z,9.93
2022-11-04T18:53:15.607Z,9.88
2022-11-04T18:58:19.922Z,9.40
2022-11-04T19:03:23.474Z,8.98
2022-11-04T19:08:26.495Z,8.52
2022-11-04T19:13:30.812Z,8.75
2022-11-04T19:18:33.804Z,8.63
2022-11-04T19:23:37.415Z,7.90
2022-11-04T19:28:48.313Z,7.22
2022-11-04T19:33:52.568Z,8.73
2022-11-04T19:38:56.658Z,7.65
2022-11-04T19:44:03.403Z,7.22
2022-11-04T19:49:07.397Z,6.90
2022-11-04T19:54:11.243Z,6.32
2022-11-04T19:59:16.106Z,5.82
2022-11-04T20:04:19.305Z,6.32
2022-11-04T20:09:22.548Z,6.15
2022-11-04T20:14:28.204Z,5.82
2022-11-04T20:19:31.193Z,6.13
2022-11-04T20:24:34.137Z,5.35
2022-11-04T20:29:38.555Z,5.70
2022-11-04T20:34:41.941Z,5.38
2022-11-04T20:39:45.587Z,5.38
2022-11-04T20:44:50.762Z,5.00
2022-11-04T20:49:53.773Z,4.82
2022-11-04T20:54:56.714Z,5.60
2022-11-04T21:00:01.009Z,4.63
2022-11-04T21:05:04.531Z,4.40
2022-11-04T21:10:07.980Z,3.90
2022-11-04T21:15:33.332Z,4.40
2022-11-04T21:20:39.632Z,4.28
2022-11-04T21:25:43.781Z,4.35
2022-11-04T21:30:49.757Z,4.50
2022-11-04T21:35:52.725Z,4.03
2022-11-04T21:41:01.767Z,4.00
2022-11-04T21:46:07.744Z,3.72
2022-11-04T21:51:12.739Z,3.85
2022-11-04T21:56:17.214Z,3.63
2022-11-04T22:01:24.172Z,3.50
2022-11-04T22:06:32.324Z,3.58
2022-11-04T22:11:39.327Z,3.50
2022-11-04T22:16:43.737Z,3.40
2022-11-04T22:21:47.350Z,3.72
2022-11-04T22:26:50.722Z,5.97
2022-11-04T22:31:55.004Z,4.63
2022-11-04T22:36:57.949Z,3.60
2022-11-04T22:42:00.913Z,3.08
2022-11-04T22:47:05.402Z,3.42
2022-11-04T22:52:08.345Z,3.17
2022-11-04T22:57:11.293Z,3.47
2022-11-04T23:02:15.756Z,3.13
2022-11-04T23:07:18.858Z,3.17
2022-11-04T23:12:47.449Z,2.83
2022-11-04T23:18:09.250Z,3.13
2022-11-04T23:23:29.570Z,2.80
2022-11-04T23:28:49.776Z,3.58
2022-11-04T23:34:11.751Z,4.75
2022-11-04T23:39:14.721Z,3.25
2022-11-04T23:44:31.555Z,2.78
2022-11-04T23:49:53.272Z,2.78
2022-11-04T23:55:13.544Z,2.80
